sensor_id;sensor_type;location;lat;lon;timestamp;pressure;altitude;pressure_sealevel;temperature;humidity
70921;BME280;58572;48.110;19.838;2023-05-20T00:01:09;98312.78;;;15.89;80.92
70921;BME280;58572;48.110;19.838;2023-05-20T00:03:37;98314.41;;;15.90;81.22
70921;BME280;58572;48.110;19.838;2023-05-20T00:06:04;98302.97;;;15.61;81.83
70921;BME280;58572;48.110;19.838;2023-05-20T00:08:31;98309.50;;;15.05;85.37
70921;BME280;58572;48.110;19.838;2023-05-20T00:10:58;98309.31;;;15.98;80.46
70921;BME280;58572;48.110;19.838;2023-05-20T00:13:25;98297.38;;;15.80;80.71
70921;BME280;58572;48.110;19.838;2023-05-20T00:15:53;98302.22;;;15.55;81.66
70921;BME280;58572;48.110;19.838;2023-05-20T00:18:21;98296.88;;;15.78;77.95
70921;BME280;58572;48.110;19.838;2023-05-20T00:20:49;98293.28;;;15.50;80.81
70921;BME280;58572;48.110;19.838;2023-05-20T00:23:16;98286.06;;;15.54;80.22
70921;BME280;58572;48.110;19.838;2023-05-20T00:25:43;98288.31;;;15.38;81.15
70921;BME280;58572;48.110;19.838;2023-05-20T00:28:10;98288.31;;;15.24;81.60
70921;BME280;58572;48.110;19.838;2023-05-20T00:30:39;98291.47;;;15.31;81.70
70921;BME280;58572;48.110;19.838;2023-05-20T00:33:06;98290.38;;;14.73;83.47
70921;BME280;58572;48.110;19.838;2023-05-20T00:35:36;98294.28;;;14.99;82.16
70921;BME280;58572;48.110;19.838;2023-05-20T00:38:03;98302.78;;;14.97;81.97
70921;BME280;58572;48.110;19.838;2023-05-20T00:40:30;98294.00;;;14.68;82.92
70921;BME280;58572;48.110;19.838;2023-05-20T00:42:57;98289.59;;;14.86;82.32
70921;BME280;58572;48.110;19.838;2023-05-20T00:45:25;98295.13;;;14.48;82.38
70921;BME280;58572;48.110;19.838;2023-05-20T00:47:52;98289.63;;;15.41;79.29
70921;BME280;58572;48.110;19.838;2023-05-20T00:50:24;98286.94;;;14.81;83.01
70921;BME280;58572;48.110;19.838;2023-05-20T00:52:53;98284.53;;;14.93;81.75
70921;BME280;58572;48.110;19.838;2023-05-20T00:55:21;98283.97;;;14.63;82.65
70921;BME280;58572;48.110;19.838;2023-05-20T00:57:49;98280.88;;;14.84;81.71
70921;BME280;58572;48.110;19.838;2023-05-20T01:00:16;98279.56;;;14.95;81.63
70921;BME280;58572;48.110;19.838;2023-05-20T01:02:43;98274.97;;;14.77;81.71
70921;BME280;58572;48.110;19.838;2023-05-20T01:05:11;98275.19;;;14.94;80.50
70921;BME280;58572;48.110;19.838;2023-05-20T01:07:38;98290.00;;;14.42;83.47
70921;BME280;58572;48.110;19.838;2023-05-20T01:10:08;98293.19;;;14.67;82.42
70921;BME280;58572;48.110;19.838;2023-05-20T01:12:39;98285.22;;;14.52;82.77
70921;BME280;58572;48.110;19.838;2023-05-20T01:15:10;98225.41;;;14.46;80.72
70921;BME280;58572;48.110;19.838;2023-05-20T01:17:38;98293.44;;;14.85;81.54
70921;BME280;58572;48.110;19.838;2023-05-20T01:20:10;98270.41;;;14.86;80.87
70921;BME280;58572;48.110;19.838;2023-05-20T01:22:46;98293.03;;;14.40;81.53
70921;BME280;58572;48.110;19.838;2023-05-20T01:25:13;98291.41;;;14.90;81.01
70921;BME280;58572;48.110;19.838;2023-05-20T01:27:40;98306.41;;;14.79;80.79
70921;BME280;58572;48.110;19.838;2023-05-20T01:30:08;98302.81;;;14.46;81.76
70921;BME280;58572;48.110;19.838;2023-05-20T01:32:38;98294.38;;;14.24;82.11
70921;BME280;58572;48.110;19.838;2023-05-20T01:35:08;98300.38;;;14.63;80.43
70921;BME280;58572;48.110;19.838;2023-05-20T01:37:39;98299.31;;;14.41;81.78
70921;BME280;58572;48.110;19.838;2023-05-20T01:40:08;98102.84;;;13.31;79.85
70921;BME280;58572;48.110;19.838;2023-05-20T01:42:36;98281.75;;;14.28;81.50
70921;BME280;58572;48.110;19.838;2023-05-20T01:45:05;98290.69;;;14.52;81.18
70921;BME280;58572;48.110;19.838;2023-05-20T01:47:33;98295.22;;;14.24;81.70
70921;BME280;58572;48.110;19.838;2023-05-20T01:50:00;98299.09;;;14.37;79.38
70921;BME280;58572;48.110;19.838;2023-05-20T01:52:27;98294.09;;;14.44;79.55
70921;BME280;58572;48.110;19.838;2023-05-20T01:54:57;98290.72;;;14.15;80.55
70921;BME280;58572;48.110;19.838;2023-05-20T01:57:25;98290.47;;;14.30;79.80
70921;BME280;58572;48.110;19.838;2023-05-20T01:59:52;98294.66;;;14.41;79.64
70921;BME280;58572;48.110;19.838;2023-05-20T02:02:19;98227.94;;;13.72;79.92
70921;BME280;58572;48.110;19.838;2023-05-20T02:04:49;98288.63;;;14.06;80.84
70921;BME280;58572;48.110;19.838;2023-05-20T02:07:16;98208.28;;;13.70;80.58
70921;BME280;58572;48.110;19.838;2023-05-20T02:09:44;98290.84;;;14.04;80.68
70921;BME280;58572;48.110;19.838;2023-05-20T02:12:13;98281.81;;;14.60;79.28
70921;BME280;58572;48.110;19.838;2023-05-20T02:14:42;98285.50;;;14.32;79.80
70921;BME280;58572;48.110;19.838;2023-05-20T02:17:09;98278.03;;;14.56;79.24
70921;BME280;58572;48.110;19.838;2023-05-20T02:19:37;98285.59;;;14.27;81.78
70921;BME280;58572;48.110;19.838;2023-05-20T02:22:05;98280.66;;;14.10;80.97
70921;BME280;58572;48.110;19.838;2023-05-20T02:24:32;98292.84;;;13.99;79.62
70921;BME280;58572;48.110;19.838;2023-05-20T02:27:00;98283.44;;;14.24;81.17
70921;BME280;58572;48.110;19.838;2023-05-20T02:29:30;98292.75;;;14.42;79.46
70921;BME280;58572;48.110;19.838;2023-05-20T02:31:58;98266.41;;;13.76;80.85
70921;BME280;58572;48.110;19.838;2023-05-20T02:34:26;98277.22;;;14.37;80.35
70921;BME280;58572;48.110;19.838;2023-05-20T02:36:54;98244.16;;;13.82;81.96
70921;BME280;58572;48.110;19.838;2023-05-20T02:39:21;98277.69;;;14.44;79.94
70921;BME280;58572;48.110;19.838;2023-05-20T02:41:49;98276.22;;;13.95;82.90
70921;BME280;58572;48.110;19.838;2023-05-20T02:44:16;98276.31;;;14.42;80.23
70921;BME280;58572;48.110;19.838;2023-05-20T02:46:44;98280.72;;;14.05;81.67
70921;BME280;58572;48.110;19.838;2023-05-20T02:49:11;98044.59;;;12.79;80.45
70921;BME280;58572;48.110;19.838;2023-05-20T02:51:39;98280.94;;;14.09;81.18
70921;BME280;58572;48.110;19.838;2023-05-20T02:54:06;98288.47;;;14.17;81.23
70921;BME280;58572;48.110;19.838;2023-05-20T02:56:33;98283.09;;;14.82;74.81
70921;BME280;58572;48.110;19.838;2023-05-20T02:59:00;98279.41;;;14.73;77.41
70921;BME280;58572;48.110;19.838;2023-05-20T03:01:30;98283.75;;;14.03;78.57
70921;BME280;58572;48.110;19.838;2023-05-20T03:04:01;98286.19;;;14.43;78.95
70921;BME280;58572;48.110;19.838;2023-05-20T03:06:29;98291.34;;;14.63;76.88
70921;BME280;58572;48.110;19.838;2023-05-20T03:08:56;98242.94;;;14.26;77.50
70921;BME280;58572;48.110;19.838;2023-05-20T03:11:24;98290.78;;;14.10;79.07
70921;BME280;58572;48.110;19.838;2023-05-20T03:13:51;98292.50;;;14.76;77.70
70921;BME280;58572;48.110;19.838;2023-05-20T03:16:18;98256.94;;;14.05;78.51
70921;BME280;58572;48.110;19.838;2023-05-20T03:18:45;98296.00;;;14.62;78.79
70921;BME280;58572;48.110;19.838;2023-05-20T03:21:15;98308.22;;;14.14;81.19
70921;BME280;58572;48.110;19.838;2023-05-20T03:23:43;98312.94;;;14.64;79.30
70921;BME280;58572;48.110;19.838;2023-05-20T03:26:10;98267.78;;;14.11;77.89
70921;BME280;58572;48.110;19.838;2023-05-20T03:28:37;98312.13;;;14.45;80.28
70921;BME280;58572;48.110;19.838;2023-05-20T03:31:04;98249.53;;;14.25;77.69
70921;BME280;58572;48.110;19.838;2023-05-20T03:33:33;98313.75;;;14.27;82.39
70921;BME280;58572;48.110;19.838;2023-05-20T03:36:00;98308.44;;;14.36;81.49
70921;BME280;58572;48.110;19.838;2023-05-20T03:38:30;98277.69;;;14.25;79.16
70921;BME280;58572;48.110;19.838;2023-05-20T03:40:57;98280.28;;;13.98;81.53
70921;BME280;58572;48.110;19.838;2023-05-20T03:43:24;98255.94;;;14.34;78.83
70921;BME280;58572;48.110;19.838;2023-05-20T03:45:53;98236.25;;;13.99;79.38
70921;BME280;58572;48.110;19.838;2023-05-20T03:48:20;98330.31;;;14.55;79.07
70921;BME280;58572;48.110;19.838;2023-05-20T03:50:48;98305.09;;;14.20;80.20
70921;BME280;58572;48.110;19.838;2023-05-20T03:53:15;98187.81;;;13.86;77.24
70921;BME280;58572;48.110;19.838;2023-05-20T03:55:46;98335.78;;;14.74;78.13
70921;BME280;58572;48.110;19.838;2023-05-20T03:58:13;98330.47;;;14.96;76.20
70921;BME280;58572;48.110;19.838;2023-05-20T04:00:41;98338.78;;;14.91;76.06
70921;BME280;58572;48.110;19.838;2023-05-20T04:03:08;98341.34;;;15.15;75.13
70921;BME280;58572;48.110;19.838;2023-05-20T04:05:36;98286.94;;;14.81;74.65
70921;BME280;58572;48.110;19.838;2023-05-20T04:08:03;98198.25;;;14.49;73.40
70921;BME280;58572;48.110;19.838;2023-05-20T04:10:31;98285.75;;;15.00;73.49
70921;BME280;58572;48.110;19.838;2023-05-20T04:13:01;98334.28;;;15.27;73.56
70921;BME280;58572;48.110;19.838;2023-05-20T04:15:29;98344.66;;;15.58;72.63
70921;BME280;58572;48.110;19.838;2023-05-20T04:17:56;98343.22;;;15.47;72.87
70921;BME280;58572;48.110;19.838;2023-05-20T04:20:23;98353.16;;;15.56;72.93
70921;BME280;58572;48.110;19.838;2023-05-20T04:22:50;98327.53;;;15.06;73.95
70921;BME280;58572;48.110;19.838;2023-05-20T04:25:18;98352.94;;;15.39;72.65
70921;BME280;58572;48.110;19.838;2023-05-20T04:27:45;98354.81;;;15.57;72.13
70921;BME280;58572;48.110;19.838;2023-05-20T04:30:15;98277.88;;;15.26;71.33
70921;BME280;58572;48.110;19.838;2023-05-20T04:32:43;98354.97;;;15.47;71.67
70921;BME280;58572;48.110;19.838;2023-05-20T04:35:12;98354.31;;;15.83;70.68
70921;BME280;58572;48.110;19.838;2023-05-20T04:37:40;98350.06;;;15.90;70.66
70921;BME280;58572;48.110;19.838;2023-05-20T04:40:10;98351.09;;;15.67;71.32
70921;BME280;58572;48.110;19.838;2023-05-20T04:42:38;98209.56;;;14.61;71.37
70921;BME280;58572;48.110;19.838;2023-05-20T04:45:06;98235.00;;;14.62;71.88
70921;BME280;58572;48.110;19.838;2023-05-20T04:47:35;98337.72;;;15.47;70.73
70921;BME280;58572;48.110;19.838;2023-05-20T04:50:06;98279.69;;;15.17;70.95
70921;BME280;58572;48.110;19.838;2023-05-20T04:52:35;98364.09;;;15.61;69.85
70921;BME280;58572;48.110;19.838;2023-05-20T04:55:02;98359.69;;;16.02;69.46
70921;BME280;58572;48.110;19.838;2023-05-20T04:57:29;98365.19;;;15.88;69.55
70921;BME280;58572;48.110;19.838;2023-05-20T04:59:59;98360.94;;;15.68;70.23
70921;BME280;58572;48.110;19.838;2023-05-20T05:02:26;98361.13;;;15.85;70.26
70921;BME280;58572;48.110;19.838;2023-05-20T05:04:55;98358.47;;;16.08;68.84
70921;BME280;58572;48.110;19.838;2023-05-20T05:07:22;98358.28;;;15.77;71.64
70921;BME280;58572;48.110;19.838;2023-05-20T05:09:50;98363.28;;;15.61;70.85
70921;BME280;58572;48.110;19.838;2023-05-20T05:12:17;98360.31;;;15.85;70.22
70921;BME280;58572;48.110;19.838;2023-05-20T05:14:44;98360.47;;;16.16;69.02
70921;BME280;58572;48.110;19.838;2023-05-20T05:17:11;98359.47;;;16.12;69.04
70921;BME280;58572;48.110;19.838;2023-05-20T05:19:38;98216.78;;;14.85;72.32
70921;BME280;58572;48.110;19.838;2023-05-20T05:22:07;98255.53;;;15.47;70.88
70921;BME280;58572;48.110;19.838;2023-05-20T05:24:34;98281.81;;;15.89;66.53
70921;BME280;58572;48.110;19.838;2023-05-20T05:27:01;98350.59;;;16.65;67.82
70921;BME280;58572;48.110;19.838;2023-05-20T05:29:28;98356.53;;;16.44;69.28
70921;BME280;58572;48.110;19.838;2023-05-20T05:31:56;98376.16;;;16.02;72.96
70921;BME280;58572;48.110;19.838;2023-05-20T05:34:23;98309.16;;;15.67;71.71
70921;BME280;58572;48.110;19.838;2023-05-20T05:36:50;98357.59;;;16.71;67.97
70921;BME280;58572;48.110;19.838;2023-05-20T05:39:19;98278.41;;;16.06;69.13
70921;BME280;58572;48.110;19.838;2023-05-20T05:41:46;98366.88;;;16.47;68.96
70921;BME280;58572;48.110;19.838;2023-05-20T05:44:13;98310.72;;;16.09;68.25
70921;BME280;58572;48.110;19.838;2023-05-20T05:46:41;98363.72;;;16.90;66.45
70921;BME280;58572;48.110;19.838;2023-05-20T05:49:08;98368.28;;;16.72;67.89
70921;BME280;58572;48.110;19.838;2023-05-20T05:51:35;98369.47;;;16.80;68.07
70921;BME280;58572;48.110;19.838;2023-05-20T05:54:03;98364.22;;;16.70;70.20
70921;BME280;58572;48.110;19.838;2023-05-20T05:56:31;98367.53;;;17.03;67.42
70921;BME280;58572;48.110;19.838;2023-05-20T05:58:58;98362.47;;;16.96;67.97
70921;BME280;58572;48.110;19.838;2023-05-20T06:01:26;98360.03;;;16.72;68.18
70921;BME280;58572;48.110;19.838;2023-05-20T06:03:53;98302.13;;;16.24;71.12
70921;BME280;58572;48.110;19.838;2023-05-20T06:06:20;98369.97;;;16.82;71.71
70921;BME280;58572;48.110;19.838;2023-05-20T06:08:47;98365.47;;;17.08;68.78
70921;BME280;58572;48.110;19.838;2023-05-20T06:11:14;98362.94;;;17.20;66.01
70921;BME280;58572;48.110;19.838;2023-05-20T06:13:43;98361.22;;;17.02;66.43
70921;BME280;58572;48.110;19.838;2023-05-20T06:16:10;98372.19;;;17.24;66.59
70921;BME280;58572;48.110;19.838;2023-05-20T06:18:37;98128.53;;;15.79;66.00
70921;BME280;58572;48.110;19.838;2023-05-20T06:21:04;98344.19;;;17.53;64.41
70921;BME280;58572;48.110;19.838;2023-05-20T06:23:32;98346.44;;;17.51;65.92
70921;BME280;58572;48.110;19.838;2023-05-20T06:25:59;98363.47;;;17.62;65.78
70921;BME280;58572;48.110;19.838;2023-05-20T06:28:27;98359.78;;;17.36;65.97
70921;BME280;58572;48.110;19.838;2023-05-20T06:30:56;98372.41;;;17.68;65.20
70921;BME280;58572;48.110;19.838;2023-05-20T06:33:23;98371.44;;;18.12;63.52
70921;BME280;58572;48.110;19.838;2023-05-20T06:35:52;98316.66;;;17.45;65.03
70921;BME280;58572;48.110;19.838;2023-05-20T06:38:19;98377.69;;;17.95;64.51
70921;BME280;58572;48.110;19.838;2023-05-20T06:40:47;98345.84;;;18.03;64.75
70921;BME280;58572;48.110;19.838;2023-05-20T06:43:15;98371.38;;;17.64;65.32
70921;BME280;58572;48.110;19.838;2023-05-20T06:45:42;98376.88;;;17.95;65.17
70921;BME280;58572;48.110;19.838;2023-05-20T06:48:11;98370.56;;;17.85;64.92
70921;BME280;58572;48.110;19.838;2023-05-20T06:50:39;98372.75;;;18.23;64.22
70921;BME280;58572;48.110;19.838;2023-05-20T06:53:06;98348.75;;;17.98;64.10
70921;BME280;58572;48.110;19.838;2023-05-20T06:55:36;98318.97;;;18.00;64.12
70921;BME280;58572;48.110;19.838;2023-05-20T06:58:03;98258.84;;;17.67;64.29
70921;BME280;58572;48.110;19.838;2023-05-20T07:00:32;98353.63;;;18.18;64.02
70921;BME280;58572;48.110;19.838;2023-05-20T07:02:59;98287.41;;;17.97;63.78
70921;BME280;58572;48.110;19.838;2023-05-20T07:05:28;98370.31;;;18.30;64.28
70921;BME280;58572;48.110;19.838;2023-05-20T07:07:56;98371.81;;;18.54;63.66
70921;BME280;58572;48.110;19.838;2023-05-20T07:10:23;98301.84;;;18.20;64.08
70921;BME280;58572;48.110;19.838;2023-05-20T07:12:50;98358.06;;;18.88;63.54
70921;BME280;58572;48.110;19.838;2023-05-20T07:15:18;98361.44;;;19.02;62.59
70921;BME280;58572;48.110;19.838;2023-05-20T07:17:45;98263.63;;;18.62;62.09
70921;BME280;58572;48.110;19.838;2023-05-20T07:20:12;98363.03;;;19.21;62.57
70921;BME280;58572;48.110;19.838;2023-05-20T07:22:46;98358.25;;;19.47;62.59
70921;BME280;58572;48.110;19.838;2023-05-20T07:25:19;98358.50;;;19.80;61.39
70921;BME280;58572;48.110;19.838;2023-05-20T07:27:46;98304.47;;;19.32;61.05
70921;BME280;58572;48.110;19.838;2023-05-20T07:30:13;98362.81;;;19.90;60.82
70921;BME280;58572;48.110;19.838;2023-05-20T07:32:41;98349.81;;;20.20;60.45
70921;BME280;58572;48.110;19.838;2023-05-20T07:35:08;98343.69;;;20.14;60.68
70921;BME280;58572;48.110;19.838;2023-05-20T07:37:35;98353.59;;;20.15;59.75
70921;BME280;58572;48.110;19.838;2023-05-20T07:40:05;98353.84;;;20.22;59.40
70921;BME280;58572;48.110;19.838;2023-05-20T07:42:32;98354.94;;;20.30;59.41
70921;BME280;58572;48.110;19.838;2023-05-20T07:44:59;98355.63;;;19.97;59.94
70921;BME280;58572;48.110;19.838;2023-05-20T07:47:27;98349.44;;;20.92;57.84
70921;BME280;58572;48.110;19.838;2023-05-20T07:49:54;98338.66;;;20.37;59.55
70921;BME280;58572;48.110;19.838;2023-05-20T07:52:21;98202.53;;;20.36;58.55
70921;BME280;58572;48.110;19.838;2023-05-20T07:54:48;98340.28;;;21.70;57.54
70921;BME280;58572;48.110;19.838;2023-05-20T07:57:17;98361.81;;;21.40;57.53
70921;BME280;58572;48.110;19.838;2023-05-20T07:59:44;98340.47;;;20.95;55.96
70921;BME280;58572;48.110;19.838;2023-05-20T08:02:11;98352.50;;;21.12;57.77
70921;BME280;58572;48.110;19.838;2023-05-20T08:04:38;98256.97;;;20.69;57.42
70921;BME280;58572;48.110;19.838;2023-05-20T08:07:05;98339.16;;;21.14;54.08
70921;BME280;58572;48.110;19.838;2023-05-20T08:09:33;98326.25;;;21.99;55.55
70921;BME280;58572;48.110;19.838;2023-05-20T08:12:00;98336.31;;;22.04;55.78
70921;BME280;58572;48.110;19.838;2023-05-20T08:14:29;98330.28;;;22.02;56.04
70921;BME280;58572;48.110;19.838;2023-05-20T08:16:56;98329.13;;;22.15;53.73
70921;BME280;58572;48.110;19.838;2023-05-20T08:19:23;98324.97;;;21.73;56.02
70921;BME280;58572;48.110;19.838;2023-05-20T08:21:51;98321.22;;;22.42;56.22
70921;BME280;58572;48.110;19.838;2023-05-20T08:24:18;98328.50;;;22.74;60.04
70921;BME280;58572;48.110;19.838;2023-05-20T08:26:46;98334.22;;;21.89;56.54
70921;BME280;58572;48.110;19.838;2023-05-20T08:29:13;98328.38;;;22.43;55.30
70921;BME280;58572;48.110;19.838;2023-05-20T08:31:42;98273.75;;;21.66;54.18
70921;BME280;58572;48.110;19.838;2023-05-20T08:34:09;98249.13;;;20.92;55.37
70921;BME280;58572;48.110;19.838;2023-05-20T08:36:36;98319.47;;;22.09;54.27
70921;BME280;58572;48.110;19.838;2023-05-20T08:39:04;98324.28;;;22.00;54.42
70921;BME280;58572;48.110;19.838;2023-05-20T08:41:32;98334.50;;;22.48;54.20
70921;BME280;58572;48.110;19.838;2023-05-20T08:44:00;98318.31;;;22.50;54.43
70921;BME280;58572;48.110;19.838;2023-05-20T08:46:29;98174.06;;;21.39;55.07
70921;BME280;58572;48.110;19.838;2023-05-20T08:48:59;98324.53;;;23.00;55.46
70921;BME280;58572;48.110;19.838;2023-05-20T08:51:27;98288.50;;;22.59;53.68
70921;BME280;58572;48.110;19.838;2023-05-20T08:53:55;98316.47;;;22.95;52.46
70921;BME280;58572;48.110;19.838;2023-05-20T08:56:22;98227.88;;;22.86;51.88
70921;BME280;58572;48.110;19.838;2023-05-20T08:58:51;98194.75;;;22.77;52.65
70921;BME280;58572;48.110;19.838;2023-05-20T09:01:18;98314.16;;;22.97;52.31
70921;BME280;58572;48.110;19.838;2023-05-20T09:03:49;98285.38;;;23.17;52.04
70921;BME280;58572;48.110;19.838;2023-05-20T09:06:19;98308.31;;;23.77;51.94
70921;BME280;58572;48.110;19.838;2023-05-20T09:08:48;98308.22;;;23.73;52.95
70921;BME280;58572;48.110;19.838;2023-05-20T09:11:16;98278.56;;;23.30;51.72
70921;BME280;58572;48.110;19.838;2023-05-20T09:13:44;98220.50;;;23.06;52.37
70921;BME280;58572;48.110;19.838;2023-05-20T09:16:11;98296.94;;;23.66;50.38
70921;BME280;58572;48.110;19.838;2023-05-20T09:18:38;98294.19;;;24.17;48.22
70921;BME280;58572;48.110;19.838;2023-05-20T09:21:06;98290.38;;;23.90;50.80
70921;BME280;58572;48.110;19.838;2023-05-20T09:23:39;98293.31;;;24.13;49.27
70921;BME280;58572;48.110;19.838;2023-05-20T09:26:09;98265.06;;;24.65;49.60
70921;BME280;58572;48.110;19.838;2023-05-20T09:28:38;98292.72;;;25.16;48.24
70921;BME280;58572;48.110;19.838;2023-05-20T09:31:08;98075.16;;;23.80;49.24
70921;BME280;58572;48.110;19.838;2023-05-20T09:33:37;98188.53;;;23.59;49.37
70921;BME280;58572;48.110;19.838;2023-05-20T09:36:08;98247.06;;;23.70;49.21
70921;BME280;58572;48.110;19.838;2023-05-20T09:38:39;98289.03;;;24.00;49.03
70921;BME280;58572;48.110;19.838;2023-05-20T09:41:10;98271.63;;;24.76;47.90
70921;BME280;58572;48.110;19.838;2023-05-20T09:43:40;98277.16;;;24.18;44.26
70921;BME280;58572;48.110;19.838;2023-05-20T09:46:07;98272.50;;;25.19;47.60
70921;BME280;58572;48.110;19.838;2023-05-20T09:48:36;98269.63;;;24.96;49.35
70921;BME280;58572;48.110;19.838;2023-05-20T09:51:04;98268.41;;;25.13;48.73
70921;BME280;58572;48.110;19.838;2023-05-20T09:53:32;98279.31;;;24.44;49.31
70921;BME280;58572;48.110;19.838;2023-05-20T09:56:00;98277.06;;;24.31;48.01
70921;BME280;58572;48.110;19.838;2023-05-20T09:58:28;98274.22;;;25.27;48.14
70921;BME280;58572;48.110;19.838;2023-05-20T10:00:56;98271.56;;;25.11;48.04
70921;BME280;58572;48.110;19.838;2023-05-20T10:03:24;98265.06;;;24.65;49.49
70921;BME280;58572;48.110;19.838;2023-05-20T10:06:13;98260.81;;;25.33;48.70
70921;BME280;58572;48.110;19.838;2023-05-20T10:08:59;98251.06;;;26.22;46.85
70921;BME280;58572;48.110;19.838;2023-05-20T10:11:37;98252.53;;;25.63;47.57
70921;BME280;58572;48.110;19.838;2023-05-20T10:14:19;98253.31;;;25.86;46.09
70921;BME280;58572;48.110;19.838;2023-05-20T10:16:54;98253.50;;;25.48;48.03
70921;BME280;58572;48.110;19.838;2023-05-20T10:19:27;98245.72;;;25.83;47.97
70921;BME280;58572;48.110;19.838;2023-05-20T10:22:00;98247.75;;;26.13;47.03
70921;BME280;58572;48.110;19.838;2023-05-20T10:24:32;98130.19;;;25.21;46.77
70921;BME280;58572;48.110;19.838;2023-05-20T10:27:03;98234.31;;;25.65;47.50
70921;BME280;58572;48.110;19.838;2023-05-20T10:29:41;98173.81;;;25.13;46.50
70921;BME280;58572;48.110;19.838;2023-05-20T10:32:09;98234.84;;;25.52;47.60
70921;BME280;58572;48.110;19.838;2023-05-20T10:34:45;98232.53;;;25.80;46.95
70921;BME280;58572;48.110;19.838;2023-05-20T10:37:22;98231.78;;;25.83;46.71
70921;BME280;58572;48.110;19.838;2023-05-20T10:39:50;98224.34;;;25.91;45.10
70921;BME280;58572;48.110;19.838;2023-05-20T10:42:27;98056.38;;;25.30;44.68
70921;BME280;58572;48.110;19.838;2023-05-20T10:44:55;98165.16;;;26.31;44.70
70921;BME280;58572;48.110;19.838;2023-05-20T10:47:21;98227.06;;;26.14;45.13
70921;BME280;58572;48.110;19.838;2023-05-20T10:49:49;98221.16;;;26.19;44.03
70921;BME280;58572;48.110;19.838;2023-05-20T10:52:16;98221.34;;;27.00;43.68
70921;BME280;58572;48.110;19.838;2023-05-20T10:54:45;98210.91;;;26.97;42.28
70921;BME280;58572;48.110;19.838;2023-05-20T10:57:13;98220.28;;;26.41;42.35
70921;BME280;58572;48.110;19.838;2023-05-20T10:59:42;98216.66;;;26.37;43.78
70921;BME280;58572;48.110;19.838;2023-05-20T11:02:10;98150.38;;;26.60;42.75
70921;BME280;58572;48.110;19.838;2023-05-20T11:04:38;98168.13;;;27.74;42.06
70921;BME280;58572;48.110;19.838;2023-05-20T11:07:05;98209.69;;;26.94;42.77
70921;BME280;58572;48.110;19.838;2023-05-20T11:09:33;98208.06;;;25.17;45.89
70921;BME280;58572;48.110;19.838;2023-05-20T11:12:00;98195.81;;;25.22;44.12
70921;BME280;58572;48.110;19.838;2023-05-20T11:14:28;98184.19;;;26.96;43.44
70921;BME280;58572;48.110;19.838;2023-05-20T11:16:57;98179.81;;;25.94;43.86
70921;BME280;58572;48.110;19.838;2023-05-20T11:19:25;98194.38;;;26.11;43.89
70921;BME280;58572;48.110;19.838;2023-05-20T11:21:53;98181.56;;;26.69;44.93
70921;BME280;58572;48.110;19.838;2023-05-20T11:24:23;98185.34;;;27.28;41.45
70921;BME280;58572;48.110;19.838;2023-05-20T11:26:52;98171.50;;;26.61;40.54
70921;BME280;58572;48.110;19.838;2023-05-20T11:29:19;98175.78;;;27.29;42.62
70921;BME280;58572;48.110;19.838;2023-05-20T11:31:48;98185.31;;;26.88;43.64
70921;BME280;58572;48.110;19.838;2023-05-20T11:34:20;98173.91;;;25.99;42.54
70921;BME280;58572;48.110;19.838;2023-05-20T11:36:48;98176.00;;;26.73;42.46
70921;BME280;58572;48.110;19.838;2023-05-20T11:39:16;98178.19;;;27.34;42.04
70921;BME280;58572;48.110;19.838;2023-05-20T11:41:44;98194.78;;;27.13;41.42
70921;BME280;58572;48.110;19.838;2023-05-20T11:44:11;98176.94;;;26.88;40.92
70921;BME280;58572;48.110;19.838;2023-05-20T11:46:42;98175.09;;;27.47;39.36
70921;BME280;58572;48.110;19.838;2023-05-20T11:49:09;98180.16;;;27.82;38.00
70921;BME280;58572;48.110;19.838;2023-05-20T11:51:40;98175.47;;;26.60;40.59
70921;BME280;58572;48.110;19.838;2023-05-20T11:54:08;98186.78;;;26.75;43.04
70921;BME280;58572;48.110;19.838;2023-05-20T11:56:37;98173.16;;;26.66;39.18
70921;BME280;58572;48.110;19.838;2023-05-20T11:59:07;98170.28;;;25.42;40.49
70921;BME280;58572;48.110;19.838;2023-05-20T12:01:35;98169.13;;;25.70;41.29
70921;BME280;58572;48.110;19.838;2023-05-20T12:04:05;98149.69;;;26.70;40.81
70921;BME280;58572;48.110;19.838;2023-05-20T12:06:32;98089.84;;;26.64;38.80
70921;BME280;58572;48.110;19.838;2023-05-20T12:09:04;98160.06;;;27.62;37.96
70921;BME280;58572;48.110;19.838;2023-05-20T12:11:33;98125.84;;;27.79;38.23
70921;BME280;58572;48.110;19.838;2023-05-20T12:14:01;98067.59;;;25.97;39.90
70921;BME280;58572;48.110;19.838;2023-05-20T12:16:30;98165.66;;;25.01;40.91
70921;BME280;58572;48.110;19.838;2023-05-20T12:18:58;98167.00;;;25.90;41.74
70921;BME280;58572;48.110;19.838;2023-05-20T12:21:26;98142.25;;;25.28;41.51
70921;BME280;58572;48.110;19.838;2023-05-20T12:23:54;98162.94;;;25.31;43.65
70921;BME280;58572;48.110;19.838;2023-05-20T12:26:24;98134.44;;;26.61;42.18
70921;BME280;58572;48.110;19.838;2023-05-20T12:28:52;98141.03;;;26.83;45.25
70921;BME280;58572;48.110;19.838;2023-05-20T12:31:20;98141.44;;;26.85;40.59
70921;BME280;58572;48.110;19.838;2023-05-20T12:33:47;98139.56;;;26.96;38.74
70921;BME280;58572;48.110;19.838;2023-05-20T12:36:14;98147.94;;;27.40;41.49
70921;BME280;58572;48.110;19.838;2023-05-20T12:38:41;98106.72;;;26.79;44.97
70921;BME280;58572;48.110;19.838;2023-05-20T12:41:10;98153.53;;;27.44;41.92
70921;BME280;58572;48.110;19.838;2023-05-20T12:43:42;98152.16;;;26.79;41.96
70921;BME280;58572;48.110;19.838;2023-05-20T12:46:09;98151.69;;;26.33;42.77
70921;BME280;58572;48.110;19.838;2023-05-20T12:48:36;98140.09;;;25.44;43.81
70921;BME280;58572;48.110;19.838;2023-05-20T12:51:03;98145.66;;;25.44;44.19
70921;BME280;58572;48.110;19.838;2023-05-20T12:53:31;98144.16;;;25.51;43.00
70921;BME280;58572;48.110;19.838;2023-05-20T12:55:58;98068.25;;;24.78;45.18